sensor_id;sensor_type;location;lat;lon;timestamp;P1;durP1;ratioP1;P2;durP2;ratioP2
54454;SDS011;40364;52.270;10.546;2024-03-08T00:01:26;29.58;;;12.45;;
54454;SDS011;40364;52.270;10.546;2024-03-08T00:03:52;29.00;;;11.88;;
54454;SDS011;40364;52.270;10.546;2024-03-08T00:06:19;28.60;;;12.52;;
54454;SDS011;40364;52.270;10.546;2024-03-08T00:08:46;32.38;;;13.77;;
54454;SDS011;40364;52.270;10.546;2024-03-08T00:11:13;32.85;;;12.98;;
54454;SDS011;40364;52.270;10.546;2024-03-08T00:13:39;33.00;;;12.57;;
54454;SDS011;40364;52.270;10.546;2024-03-08T00:16:06;30.25;;;11.68;;
54454;SDS011;40364;52.270;10.546;2024-03-08T00:18:35;26.70;;;11.65;;
54454;SDS011;40364;52.270;10.546;2024-03-08T00:21:02;29.35;;;12.35;;
54454;SDS011;40364;52.270;10.546;2024-03-08T00:23:29;24.17;;;11.45;;
54454;SDS011;40364;52.270;10.546;2024-03-08T00:25:56;26.42;;;11.35;;
54454;SDS011;40364;52.270;10.546;2024-03-08T00:28:23;30.00;;;13.40;;
54454;SDS011;40364;52.270;10.546;2024-03-08T00:30:50;26.08;;;11.50;;
54454;SDS011;40364;52.270;10.546;2024-03-08T00:33:16;27.40;;;11.93;;
54454;SDS011;40364;52.270;10.546;2024-03-08T00:35:44;31.80;;;12.57;;
54454;SDS011;40364;52.270;10.546;2024-03-08T00:38:11;28.80;;;12.73;;
54454;SDS011;40364;52.270;10.546;2024-03-08T00:40:38;29.40;;;12.82;;
54454;SDS011;40364;52.270;10.546;2024-03-08T00:43:06;32.42;;;12.38;;
54454;SDS011;40364;52.270;10.546;2024-03-08T00:45:32;28.02;;;13.20;;
54454;SDS011;40364;52.270;10.546;2024-03-08T00:47:59;31.70;;;11.90;;
54454;SDS011;40364;52.270;10.546;2024-03-08T00:50:26;36.90;;;13.30;;
54454;SDS011;40364;52.270;10.546;2024-03-08T00:52:54;29.90;;;12.82;;
54454;SDS011;40364;52.270;10.546;2024-03-08T00:55:21;27.02;;;11.73;;
54454;SDS011;40364;52.270;10.546;2024-03-08T00:57:48;32.20;;;11.45;;
54454;SDS011;40364;52.270;10.546;2024-03-08T01:00:14;28.55;;;12.00;;
54454;SDS011;40364;52.270;10.546;2024-03-08T01:02:42;30.83;;;12.00;;
54454;SDS011;40364;52.270;10.546;2024-03-08T01:05:08;31.05;;;14.20;;
54454;SDS011;40364;52.270;10.546;2024-03-08T01:07:35;33.10;;;13.38;;
54454;SDS011;40364;52.270;10.546;2024-03-08T01:10:03;30.83;;;12.50;;
54454;SDS011;40364;52.270;10.546;2024-03-08T01:12:34;34.17;;;13.75;;
54454;SDS011;40364;52.270;10.546;2024-03-08T01:15:01;31.98;;;12.88;;
54454;SDS011;40364;52.270;10.546;2024-03-08T01:17:28;29.65;;;13.50;;
54454;SDS011;40364;52.270;10.546;2024-03-08T01:19:54;36.65;;;14.75;;
54454;SDS011;40364;52.270;10.546;2024-03-08T01:22:21;34.35;;;13.98;;
54454;SDS011;40364;52.270;10.546;2024-03-08T01:24:48;32.50;;;13.38;;
54454;SDS011;40364;52.270;10.546;2024-03-08T01:27:17;32.13;;;13.35;;
54454;SDS011;40364;52.270;10.546;2024-03-08T01:29:44;32.35;;;13.63;;
54454;SDS011;40364;52.270;10.546;2024-03-08T01:32:10;32.58;;;13.90;;
54454;SDS011;40364;52.270;10.546;2024-03-08T01:34:37;31.35;;;13.80;;
54454;SDS011;40364;52.270;10.546;2024-03-08T01:37:04;30.25;;;13.15;;
54454;SDS011;40364;52.270;10.546;2024-03-08T01:39:31;28.63;;;13.30;;
54454;SDS011;40364;52.270;10.546;2024-03-08T01:41:58;27.90;;;12.85;;
54454;SDS011;40364;52.270;10.546;2024-03-08T01:44:27;31.10;;;13.57;;
54454;SDS011;40364;52.270;10.546;2024-03-08T01:46:53;33.72;;;13.70;;
54454;SDS011;40364;52.270;10.546;2024-03-08T01:49:21;27.10;;;12.48;;
54454;SDS011;40364;52.270;10.546;2024-03-08T01:51:49;30.75;;;12.95;;
54454;SDS011;40364;52.270;10.546;2024-03-08T01:54:16;27.67;;;11.90;;
54454;SDS011;40364;52.270;10.546;2024-03-08T01:56:45;29.27;;;13.52;;
54454;SDS011;40364;52.270;10.546;2024-03-08T01:59:12;33.72;;;13.73;;
54454;SDS011;40364;52.270;10.546;2024-03-08T02:01:41;33.58;;;14.07;;
54454;SDS011;40364;52.270;10.546;2024-03-08T02:04:08;32.20;;;13.60;;
54454;SDS011;40364;52.270;10.546;2024-03-08T02:06:35;30.48;;;13.43;;
54454;SDS011;40364;52.270;10.546;2024-03-08T02:09:03;36.17;;;14.50;;
54454;SDS011;40364;52.270;10.546;2024-03-08T02:11:32;31.45;;;12.90;;
54454;SDS011;40364;52.270;10.546;2024-03-08T02:13:59;29.55;;;13.60;;
54454;SDS011;40364;52.270;10.546;2024-03-08T02:16:26;33.88;;;12.98;;
54454;SDS011;40364;52.270;10.546;2024-03-08T02:18:54;32.45;;;13.68;;
54454;SDS011;40364;52.270;10.546;2024-03-08T02:21:22;28.10;;;13.77;;
54454;SDS011;40364;52.270;10.546;2024-03-08T02:23:49;36.28;;;15.68;;
54454;SDS011;40364;52.270;10.546;2024-03-08T02:26:17;33.47;;;12.32;;
54454;SDS011;40364;52.270;10.546;2024-03-08T02:28:44;30.20;;;14.10;;
54454;SDS011;40364;52.270;10.546;2024-03-08T02:31:11;34.85;;;13.85;;
54454;SDS011;40364;52.270;10.546;2024-03-08T02:33:37;29.60;;;13.40;;
54454;SDS011;40364;52.270;10.546;2024-03-08T02:36:04;29.02;;;13.85;;
54454;SDS011;40364;52.270;10.546;2024-03-08T02:38:33;32.85;;;14.45;;
54454;SDS011;40364;52.270;10.546;2024-03-08T02:41:00;37.95;;;14.32;;
54454;SDS011;40364;52.270;10.546;2024-03-08T02:43:26;33.63;;;14.25;;
54454;SDS011;40364;52.270;10.546;2024-03-08T02:45:53;35.13;;;14.75;;
54454;SDS011;40364;52.270;10.546;2024-03-08T02:48:19;31.40;;;13.50;;
54454;SDS011;40364;52.270;10.546;2024-03-08T02:50:47;38.80;;;15.30;;
54454;SDS011;40364;52.270;10.546;2024-03-08T02:53:16;31.30;;;13.85;;
54454;SDS011;40364;52.270;10.546;2024-03-08T02:55:45;38.35;;;14.05;;
54454;SDS011;40364;52.270;10.546;2024-03-08T02:58:12;41.53;;;15.15;;
54454;SDS011;40364;52.270;10.546;2024-03-08T03:00:39;32.72;;;14.48;;
54454;SDS011;40364;52.270;10.546;2024-03-08T03:03:06;29.73;;;14.15;;
54454;SDS011;40364;52.270;10.546;2024-03-08T03:05:33;38.83;;;15.55;;
54454;SDS011;40364;52.270;10.546;2024-03-08T03:08:00;33.75;;;14.43;;
54454;SDS011;40364;52.270;10.546;2024-03-08T03:10:29;41.28;;;15.82;;
54454;SDS011;40364;52.270;10.546;2024-03-08T03:12:57;35.38;;;14.73;;
54454;SDS011;40364;52.270;10.546;2024-03-08T03:15:24;34.13;;;14.15;;
54454;SDS011;40364;52.270;10.546;2024-03-08T03:17:50;38.22;;;14.60;;
54454;SDS011;40364;52.270;10.546;2024-03-08T03:20:17;36.88;;;14.05;;
54454;SDS011;40364;52.270;10.546;2024-03-08T03:22:51;32.63;;;13.45;;
54454;SDS011;40364;52.270;10.546;2024-03-08T03:25:18;35.67;;;14.40;;
54454;SDS011;40364;52.270;10.546;2024-03-08T03:27:51;32.10;;;14.35;;
54454;SDS011;40364;52.270;10.546;2024-03-08T03:30:22;35.67;;;14.55;;
54454;SDS011;40364;52.270;10.546;2024-03-08T03:32:52;31.90;;;14.48;;
54454;SDS011;40364;52.270;10.546;2024-03-08T03:35:21;34.15;;;13.90;;
54454;SDS011;40364;52.270;10.546;2024-03-08T03:37:48;35.28;;;16.42;;
54454;SDS011;40364;52.270;10.546;2024-03-08T03:40:26;39.47;;;14.07;;
54454;SDS011;40364;52.270;10.546;2024-03-08T03:42:53;34.75;;;14.88;;
54454;SDS011;40364;52.270;10.546;2024-03-08T03:45:20;37.85;;;16.15;;
54454;SDS011;40364;52.270;10.546;2024-03-08T03:47:48;37.80;;;14.98;;
54454;SDS011;40364;52.270;10.546;2024-03-08T03:50:15;32.03;;;14.82;;
54454;SDS011;40364;52.270;10.546;2024-03-08T03:52:41;41.25;;;15.30;;
54454;SDS011;40364;52.270;10.546;2024-03-08T03:55:08;35.63;;;15.80;;
54454;SDS011;40364;52.270;10.546;2024-03-08T03:57:37;34.78;;;16.02;;
54454;SDS011;40364;52.270;10.546;2024-03-08T04:00:04;36.45;;;14.38;;
54454;SDS011;40364;52.270;10.546;2024-03-08T04:02:35;30.73;;;14.57;;
54454;SDS011;40364;52.270;10.546;2024-03-08T04:05:04;38.92;;;14.75;;
54454;SDS011;40364;52.270;10.546;2024-03-08T04:07:32;35.47;;;16.13;;
54454;SDS011;40364;52.270;10.546;2024-03-08T04:09:59;39.17;;;14.82;;
54454;SDS011;40364;52.270;10.546;2024-03-08T04:12:26;33.58;;;15.52;;
54454;SDS011;40364;52.270;10.546;2024-03-08T04:14:54;37.72;;;14.93;;
54454;SDS011;40364;52.270;10.546;2024-03-08T04:17:20;41.05;;;16.20;;
54454;SDS011;40364;52.270;10.546;2024-03-08T04:19:47;36.08;;;15.07;;
54454;SDS011;40364;52.270;10.546;2024-03-08T04:22:15;33.47;;;15.00;;
54454;SDS011;40364;52.270;10.546;2024-03-08T04:24:42;38.70;;;15.60;;
54454;SDS011;40364;52.270;10.546;2024-03-08T04:27:09;35.20;;;16.35;;
54454;SDS011;40364;52.270;10.546;2024-03-08T04:29:36;33.75;;;14.27;;
54454;SDS011;40364;52.270;10.546;2024-03-08T04:32:03;37.35;;;16.70;;
54454;SDS011;40364;52.270;10.546;2024-03-08T04:34:31;31.27;;;15.48;;
54454;SDS011;40364;52.270;10.546;2024-03-08T04:36:59;32.63;;;15.15;;
54454;SDS011;40364;52.270;10.546;2024-03-08T04:39:27;39.35;;;17.10;;
54454;SDS011;40364;52.270;10.546;2024-03-08T04:41:54;35.92;;;16.05;;
54454;SDS011;40364;52.270;10.546;2024-03-08T04:44:22;38.08;;;15.02;;
54454;SDS011;40364;52.270;10.546;2024-03-08T04:46:49;40.83;;;16.23;;
54454;SDS011;40364;52.270;10.546;2024-03-08T04:49:16;41.40;;;16.23;;
54454;SDS011;40364;52.270;10.546;2024-03-08T04:51:43;39.67;;;17.05;;
54454;SDS011;40364;52.270;10.546;2024-03-08T04:54:11;38.28;;;15.95;;
54454;SDS011;40364;52.270;10.546;2024-03-08T04:56:39;38.88;;;15.70;;
54454;SDS011;40364;52.270;10.546;2024-03-08T04:59:06;43.03;;;16.30;;
54454;SDS011;40364;52.270;10.546;2024-03-08T05:01:33;36.50;;;16.10;;
54454;SDS011;40364;52.270;10.546;2024-03-08T05:04:01;32.08;;;15.32;;
54454;SDS011;40364;52.270;10.546;2024-03-08T05:06:28;37.47;;;15.52;;
54454;SDS011;40364;52.270;10.546;2024-03-08T05:08:55;38.55;;;15.77;;
54454;SDS011;40364;52.270;10.546;2024-03-08T05:11:22;35.85;;;15.70;;
54454;SDS011;40364;52.270;10.546;2024-03-08T05:13:50;38.08;;;16.40;;
54454;SDS011;40364;52.270;10.546;2024-03-08T05:16:16;36.28;;;16.38;;
54454;SDS011;40364;52.270;10.546;2024-03-08T05:18:43;40.53;;;16.08;;
54454;SDS011;40364;52.270;10.546;2024-03-08T05:21:12;35.22;;;15.73;;
54454;SDS011;40364;52.270;10.546;2024-03-08T05:23:39;37.53;;;16.70;;
54454;SDS011;40364;52.270;10.546;2024-03-08T05:26:06;29.90;;;15.32;;
54454;SDS011;40364;52.270;10.546;2024-03-08T05:28:32;38.10;;;16.25;;
54454;SDS011;40364;52.270;10.546;2024-03-08T05:31:00;34.13;;;15.77;;
54454;SDS011;40364;52.270;10.546;2024-03-08T05:33:27;40.97;;;15.52;;
54454;SDS011;40364;52.270;10.546;2024-03-08T05:35:54;39.60;;;16.60;;
54454;SDS011;40364;52.270;10.546;2024-03-08T05:38:20;35.20;;;15.70;;
54454;SDS011;40364;52.270;10.546;2024-03-08T05:40:47;36.65;;;15.13;;
54454;SDS011;40364;52.270;10.546;2024-03-08T05:43:16;38.13;;;15.43;;
54454;SDS011;40364;52.270;10.546;2024-03-08T05:45:44;42.65;;;17.20;;
54454;SDS011;40364;52.270;10.546;2024-03-08T05:48:13;36.63;;;15.50;;
54454;SDS011;40364;52.270;10.546;2024-03-08T05:50:39;35.47;;;15.85;;
54454;SDS011;40364;52.270;10.546;2024-03-08T05:53:08;41.40;;;16.48;;
54454;SDS011;40364;52.270;10.546;2024-03-08T05:55:35;39.33;;;16.15;;
54454;SDS011;40364;52.270;10.546;2024-03-08T05:58:01;37.80;;;16.77;;
54454;SDS011;40364;52.270;10.546;2024-03-08T06:00:28;37.63;;;16.15;;
54454;SDS011;40364;52.270;10.546;2024-03-08T06:02:56;37.03;;;15.70;;
54454;SDS011;40364;52.270;10.546;2024-03-08T06:05:25;34.20;;;15.88;;
54454;SDS011;40364;52.270;10.546;2024-03-08T06:07:51;36.92;;;16.67;;
54454;SDS011;40364;52.270;10.546;2024-03-08T06:10:18;37.60;;;15.88;;
54454;SDS011;40364;52.270;10.546;2024-03-08T06:12:45;31.83;;;14.63;;
54454;SDS011;40364;52.270;10.546;2024-03-08T06:15:12;30.38;;;14.13;;
54454;SDS011;40364;52.270;10.546;2024-03-08T06:17:41;39.72;;;16.20;;
54454;SDS011;40364;52.270;10.546;2024-03-08T06:20:07;37.47;;;16.10;;
54454;SDS011;40364;52.270;10.546;2024-03-08T06:22:39;37.72;;;16.23;;
54454;SDS011;40364;52.270;10.546;2024-03-08T06:25:07;34.72;;;15.02;;
54454;SDS011;40364;52.270;10.546;2024-03-08T06:27:36;36.60;;;14.90;;
54454;SDS011;40364;52.270;10.546;2024-03-08T06:30:03;35.13;;;15.43;;
54454;SDS011;40364;52.270;10.546;2024-03-08T06:32:31;40.58;;;16.95;;
54454;SDS011;40364;52.270;10.546;2024-03-08T06:35:00;31.70;;;14.75;;
54454;SDS011;40364;52.270;10.546;2024-03-08T06:37:27;34.53;;;14.95;;
54454;SDS011;40364;52.270;10.546;2024-03-08T06:39:56;33.67;;;15.10;;
54454;SDS011;40364;52.270;10.546;2024-03-08T06:42:23;37.80;;;16.63;;
54454;SDS011;40364;52.270;10.546;2024-03-08T06:44:49;36.85;;;15.75;;
54454;SDS011;40364;52.270;10.546;2024-03-08T06:47:16;40.20;;;15.23;;
54454;SDS011;40364;52.270;10.546;2024-03-08T06:49:43;38.42;;;17.05;;
54454;SDS011;40364;52.270;10.546;2024-03-08T06:52:10;33.78;;;15.85;;
54454;SDS011;40364;52.270;10.546;2024-03-08T06:54:37;37.28;;;16.15;;
54454;SDS011;40364;52.270;10.546;2024-03-08T06:57:06;36.00;;;15.85;;
54454;SDS011;40364;52.270;10.546;2024-03-08T06:59:32;34.40;;;15.77;;
54454;SDS011;40364;52.270;10.546;2024-03-08T07:02:00;40.42;;;14.93;;
54454;SDS011;40364;52.270;10.546;2024-03-08T07:04:27;38.83;;;15.45;;
54454;SDS011;40364;52.270;10.546;2024-03-08T07:06:55;33.00;;;14.40;;
54454;SDS011;40364;52.270;10.546;2024-03-08T07:09:22;29.10;;;13.35;;
54454;SDS011;40364;52.270;10.546;2024-03-08T07:11:49;29.58;;;11.63;;
54454;SDS011;40364;52.270;10.546;2024-03-08T07:14:21;34.63;;;15.02;;
54454;SDS011;40364;52.270;10.546;2024-03-08T07:16:48;38.47;;;15.20;;
54454;SDS011;40364;52.270;10.546;2024-03-08T07:19:15;28.33;;;12.73;;
54454;SDS011;40364;52.270;10.546;2024-03-08T07:21:41;25.95;;;11.43;;
54454;SDS011;40364;52.270;10.546;2024-03-08T07:24:09;31.73;;;14.38;;
54454;SDS011;40364;52.270;10.546;2024-03-08T07:26:52;34.10;;;15.05;;
54454;SDS011;40364;52.270;10.546;2024-03-08T07:29:21;32.13;;;14.82;;
54454;SDS011;40364;52.270;10.546;2024-03-08T07:31:48;32.25;;;13.20;;
54454;SDS011;40364;52.270;10.546;2024-03-08T07:34:26;27.67;;;13.75;;
54454;SDS011;40364;52.270;10.546;2024-03-08T07:36:52;32.38;;;13.88;;
54454;SDS011;40364;52.270;10.546;2024-03-08T07:39:21;34.00;;;15.68;;
54454;SDS011;40364;52.270;10.546;2024-03-08T07:41:48;32.80;;;14.88;;
54454;SDS011;40364;52.270;10.546;2024-03-08T07:44:17;35.97;;;15.57;;
54454;SDS011;40364;52.270;10.546;2024-03-08T07:46:46;29.65;;;12.95;;
54454;SDS011;40364;52.270;10.546;2024-03-08T07:49:12;36.05;;;14.73;;
54454;SDS011;40364;52.270;10.546;2024-03-08T07:51:40;32.15;;;14.57;;
54454;SDS011;40364;52.270;10.546;2024-03-08T07:54:07;29.30;;;12.75;;
54454;SDS011;40364;52.270;10.546;2024-03-08T07:56:34;29.55;;;14.52;;
54454;SDS011;40364;52.270;10.546;2024-03-08T07:59:01;27.88;;;12.35;;
54454;SDS011;40364;52.270;10.546;2024-03-08T08:01:29;24.42;;;11.43;;
54454;SDS011;40364;52.270;10.546;2024-03-08T08:03:57;23.40;;;11.07;;
54454;SDS011;40364;52.270;10.546;2024-03-08T08:06:23;21.10;;;10.25;;
54454;SDS011;40364;52.270;10.546;2024-03-08T08:08:50;19.27;;;9.80;;
54454;SDS011;40364;52.270;10.546;2024-03-08T08:11:17;26.33;;;12.50;;
54454;SDS011;40364;52.270;10.546;2024-03-08T08:13:45;28.90;;;12.52;;
54454;SDS011;40364;52.270;10.546;2024-03-08T08:16:12;30.60;;;14.35;;
54454;SDS011;40364;52.270;10.546;2024-03-08T08:18:39;34.80;;;15.05;;
54454;SDS011;40364;52.270;10.546;2024-03-08T08:21:07;30.67;;;14.95;;
54454;SDS011;40364;52.270;10.546;2024-03-08T08:23:34;31.27;;;13.70;;
54454;SDS011;40364;52.270;10.546;2024-03-08T08:26:01;32.42;;;14.48;;
54454;SDS011;40364;52.270;10.546;2024-03-08T08:28:28;25.73;;;12.55;;
54454;SDS011;40364;52.270;10.546;2024-03-08T08:30:55;33.85;;;13.82;;
54454;SDS011;40364;52.270;10.546;2024-03-08T08:33:22;34.95;;;13.57;;
54454;SDS011;40364;52.270;10.546;2024-03-08T08:35:50;32.53;;;12.98;;
54454;SDS011;40364;52.270;10.546;2024-03-08T08:38:20;35.25;;;15.20;;
54454;SDS011;40364;52.270;10.546;2024-03-08T08:40:46;29.10;;;14.10;;
54454;SDS011;40364;52.270;10.546;2024-03-08T08:43:13;31.60;;;14.23;;
54454;SDS011;40364;52.270;10.546;2024-03-08T08:45:40;31.00;;;14.00;;
54454;SDS011;40364;52.270;10.546;2024-03-08T08:48:08;31.17;;;15.88;;
54454;SDS011;40364;52.270;10.546;2024-03-08T08:50:35;27.65;;;13.85;;
54454;SDS011;40364;52.270;10.546;2024-03-08T08:53:02;28.25;;;13.00;;
54454;SDS011;40364;52.270;10.546;2024-03-08T08:55:34;29.55;;;13.00;;
54454;SDS011;40364;52.270;10.546;2024-03-08T08:58:01;32.30;;;13.18;;
54454;SDS011;40364;52.270;10.546;2024-03-08T09:00:28;30.10;;;13.77;;
54454;SDS011;40364;52.270;10.546;2024-03-08T09:02:57;32.13;;;14.77;;
54454;SDS011;40364;52.270;10.546;2024-03-08T09:05:24;37.08;;;13.80;;
54454;SDS011;40364;52.270;10.546;2024-03-08T09:07:51;28.38;;;13.50;;
54454;SDS011;40364;52.270;10.546;2024-03-08T09:10:18;29.27;;;14.07;;
54454;SDS011;40364;52.270;10.546;2024-03-08T09:12:47;36.78;;;14.38;;
54454;SDS011;40364;52.270;10.546;2024-03-08T09:15:14;25.52;;;11.93;;
54454;SDS011;40364;52.270;10.546;2024-03-08T09:17:45;27.67;;;13.88;;
54454;SDS011;40364;52.270;10.546;2024-03-08T09:20:13;32.50;;;15.13;;
54454;SDS011;40364;52.270;10.546;2024-03-08T09:22:40;30.80;;;14.27;;
54454;SDS011;40364;52.270;10.546;2024-03-08T09:25:08;27.38;;;12.57;;
54454;SDS011;40364;52.270;10.546;2024-03-08T09:27:34;34.30;;;14.75;;
54454;SDS011;40364;52.270;10.546;2024-03-08T09:30:03;32.88;;;14.10;;
54454;SDS011;40364;52.270;10.546;2024-03-08T09:32:31;33.00;;;15.73;;
54454;SDS011;40364;52.270;10.546;2024-03-08T09:34:58;38.03;;;16.75;;
54454;SDS011;40364;52.270;10.546;2024-03-08T09:37:26;30.90;;;15.00;;
54454;SDS011;40364;52.270;10.546;2024-03-08T09:39:52;35.25;;;15.00;;
54454;SDS011;40364;52.270;10.546;2024-03-08T09:42:19;35.33;;;15.15;;
54454;SDS011;40364;52.270;10.546;2024-03-08T09:44:46;31.95;;;14.18;;
54454;SDS011;40364;52.270;10.546;2024-03-08T09:47:14;28.42;;;14.73;;
54454;SDS011;40364;52.270;10.546;2024-03-08T09:49:41;33.15;;;14.60;;
54454;SDS011;40364;52.270;10.546;2024-03-08T09:52:08;35.33;;;15.50;;
54454;SDS011;40364;52.270;10.546;2024-03-08T09:54:35;33.75;;;13.95;;
54454;SDS011;40364;52.270;10.546;2024-03-08T09:57:03;34.00;;;15.27;;
54454;SDS011;40364;52.270;10.546;2024-03-08T09:59:30;32.28;;;14.90;;
54454;SDS011;40364;52.270;10.546;2024-03-08T10:02:18;34.33;;;16.02;;
54454;SDS011;40364;52.270;10.546;2024-03-08T10:04:46;36.90;;;16.60;;
54454;SDS011;40364;52.270;10.546;2024-03-08T10:07:13;35.78;;;16.60;;
54454;SDS011;40364;52.270;10.546;2024-03-08T10:09:39;33.42;;;15.25;;
54454;SDS011;40364;52.270;10.546;2024-03-08T10:12:10;35.47;;;16.10;;
54454;SDS011;40364;52.270;10.546;2024-03-08T10:14:38;40.17;;;17.27;;
54454;SDS011;40364;52.270;10.546;2024-03-08T10:17:07;33.15;;;16.52;;
54454;SDS011;40364;52.270;10.546;2024-03-08T10:19:35;38.25;;;17.25;;
54454;SDS011;40364;52.270;10.546;2024-03-08T10:22:02;38.42;;;16.05;;
54454;SDS011;40364;52.270;10.546;2024-03-08T10:24:31;33.97;;;16.48;;
54454;SDS011;40364;52.270;10.546;2024-03-08T10:26:59;37.13;;;16.17;;
54454;SDS011;40364;52.270;10.546;2024-03-08T10:29:29;34.58;;;16.52;;
54454;SDS011;40364;52.270;10.546;2024-03-08T10:31:56;35.47;;;16.15;;
54454;SDS011;40364;52.270;10.546;2024-03-08T10:34:23;34.95;;;17.08;;
54454;SDS011;40364;52.270;10.546;2024-03-08T10:36:51;40.58;;;16.75;;
54454;SDS011;40364;52.270;10.546;2024-03-08T10:39:22;33.92;;;17.17;;
54454;SDS011;40364;52.270;10.546;2024-03-08T10:41:52;36.30;;;16.45;;
54454;SDS011;40364;52.270;10.546;2024-03-08T10:47:13;33.50;;;16.77;;
54454;SDS011;40364;52.270;10.546;2024-03-08T10:49:47;35.00;;;18.30;;
54454;SDS011;40364;52.270;10.546;2024-03-08T10:52:20;36.97;;;16.95;;
54454;SDS011;40364;52.270;10.546;2024-03-08T10:54:48;36.20;;;16.10;;
54454;SDS011;40364;52.270;10.546;2024-03-08T10:57:16;34.47;;;16.45;;
54454;SDS011;40364;52.270;10.546;2024-03-08T10:59:45;32.58;;;15.43;;
54454;SDS011;40364;52.270;10.546;2024-03-08T11:02:14;32.90;;;16.75;;
54454;SDS011;40364;52.270;10.546;2024-03-08T11:04:45;29.95;;;16.88;;
54454;SDS011;40364;52.270;10.546;2024-03-08T11:07:14;32.03;;;16.98;;
54454;SDS011;40364;52.270;10.546;2024-03-08T11:09:44;38.55;;;17.98;;
54454;SDS011;40364;52.270;10.546;2024-03-08T11:12:20;35.00;;;16.98;;
54454;SDS011;40364;52.270;10.546;2024-03-08T11:14:50;34.83;;;17.50;;
54454;SDS011;40364;52.270;10.546;2024-03-08T11:17:20;35.05;;;16.77;;
54454;SDS011;40364;52.270;10.546;2024-03-08T11:19:48;32.78;;;18.30;;
54454;SDS011;40364;52.270;10.546;2024-03-08T11:22:20;33.00;;;16.70;;
54454;SDS011;40364;52.270;10.546;2024-03-08T11:24:51;33.60;;;18.02;;
54454;SDS011;40364;52.270;10.546;2024-03-08T11:27:17;27.38;;;16.08;;
54454;SDS011;40364;52.270;10.546;2024-03-08T11:29:45;31.85;;;16.20;;
54454;SDS011;40364;52.270;10.546;2024-03-08T11:32:27;30.40;;;15.40;;
54454;SDS011;40364;52.270;10.546;2024-03-08T11:34:55;30.30;;;15.88;;
54454;SDS011;40364;52.270;10.546;2024-03-08T11:37:22;30.15;;;15.63;;
54454;SDS011;40364;52.270;10.546;2024-03-08T11:39:51;30.17;;;15.68;;
54454;SDS011;40364;52.270;10.546;2024-03-08T11:42:24;29.08;;;15.82;;
54454;SDS011;40364;52.270;10.546;2024-03-08T11:44:52;27.50;;;15.27;;
54454;SDS011;40364;52.270;10.546;2024-03-08T11:47:20;30.38;;;15.65;;
54454;SDS011;40364;52.270;10.546;2024-03-08T11:49:47;24.00;;;15.05;;
54454;SDS011;40364;52.270;10.546;2024-03-08T11:52:14;28.13;;;15.52;;
54454;SDS011;40364;52.270;10.546;2024-03-08T11:54:42;24.45;;;14.45;;
54454;SDS011;40364;52.270;10.546;2024-03-08T11:57:16;30.35;;;14.38;;
54454;SDS011;40364;52.270;10.546;2024-03-08T11:59:49;30.02;;;14.75;;
54454;SDS011;40364;52.270;10.546;2024-03-08T12:02:16;23.90;;;13.85;;
54454;SDS011;40364;52.270;10.546;2024-03-08T12:04:44;24.65;;;13.18;;
54454;SDS011;40364;52.270;10.546;2024-03-08T12:07:12;26.27;;;13.52;;
54454;SDS011;40364;52.270;10.546;2024-03-08T12:09:39;27.10;;;14.15;;
54454;SDS011;40364;52.270;10.546;2024-03-08T12:12:11;24.30;;;13.50;;
54454;SDS011;40364;52.270;10.546;2024-03-08T12:14:39;26.55;;;13.48;;
54454;SDS011;40364;52.270;10.546;2024-03-08T12:17:09;22.58;;;13.13;;
54454;SDS011;40364;52.270;10.546;2024-03-08T12:19:36;26.05;;;14.23;;
54454;SDS011;40364;52.270;10.546;2024-03-08T12:22:07;24.70;;;13.63;;
54454;SDS011;40364;52.270;10.546;2024-03-08T12:24:36;23.65;;;13.13;;
54454;SDS011;40364;52.270;10.546;2024-03-08T12:27:17;24.33;;;13.10;;
54454;SDS011;40364;52.270;10.546;2024-03-08T12:32:12;23.92;;;12.40;;
54454;SDS011;40364;52.270;10.546;2024-03-08T12:34:39;22.15;;;12.73;;
54454;SDS011;40364;52.270;10.546;2024-03-08T12:37:06;24.80;;;14.38;;
54454;SDS011;40364;52.270;10.546;2024-03-08T12:39:34;24.05;;;13.30;;
54454;SDS011;40364;52.270;10.546;2024-03-08T12:42:02;27.00;;;15.02;;
54454;SDS011;40364;52.270;10.546;2024-03-08T12:44:29;23.20;;;13.52;;
54454;SDS011;40364;52.270;10.546;2024-03-08T12:46:55;22.52;;;13.73;;
54454;SDS011;40364;52.270;10.546;2024-03-08T12:49:25;22.83;;;12.52;;
54454;SDS011;40364;52.270;10.546;2024-03-08T12:51:52;20.77;;;12.43;;
54454;SDS011;40364;52.270;10.546;2024-03-08T12:54:19;21.90;;;11.73;;
54454;SDS011;40364;52.270;10.546;2024-03-08T12:56:48;21.60;;;12.70;;
54454;SDS011;40364;52.270;10.546;2024-03-08T12:59:18;20.63;;;12.50;;
54454;SDS011;40364;52.270;10.546;2024-03-08T13:01:46;19.10;;;11.70;;
54454;SDS011;40364;52.270;10.546;2024-03-08T13:04:13;18.45;;;11.82;;
54454;SDS011;40364;52.270;10.546;2024-03-08T13:06:41;18.67;;;11.43;;
54454;SDS011;40364;52.270;10.546;2024-03-08T13:09:08;21.23;;;12.05;;
54454;SDS011;40364;52.270;10.546;2024-03-08T13:11:35;19.50;;;11.63;;
54454;SDS011;40364;52.270;10.546;2024-03-08T13:14:03;21.80;;;12.00;;
54454;SDS011;40364;52.270;10.546;2024-03-08T13:16:30;18.63;;;11.00;;
54454;SDS011;40364;52.270;10.546;2024-03-08T13:18:57;21.35;;;12.45;;
54454;SDS011;40364;52.270;10.546;2024-03-08T13:21:24;20.40;;;12.07;;
54454;SDS011;40364;52.270;10.546;2024-03-08T13:23:52;21.38;;;12.13;;
54454;SDS011;40364;52.270;10.546;2024-03-08T13:26:20;22.45;;;13.88;;
54454;SDS011;40364;52.270;10.546;2024-03-08T13:28:47;24.42;;;13.52;;
54454;SDS011;40364;52.270;10.546;2024-03-08T13:31:18;25.80;;;12.77;;
54454;SDS011;40364;52.270;10.546;2024-03-08T13:33:45;22.08;;;12.40;;
54454;SDS011;40364;52.270;10.546;2024-03-08T13:36:12;21.70;;;13.18;;
54454;SDS011;40364;52.270;10.546;2024-03-08T13:38:41;21.08;;;12.57;;
54454;SDS011;40364;52.270;10.546;2024-03-08T13:41:10;21.98;;;13.40;;
54454;SDS011;40364;52.270;10.546;2024-03-08T13:43:39;24.70;;;13.75;;
54454;SDS011;40364;52.270;10.546;2024-03-08T13:46:07;22.83;;;13.45;;
54454;SDS011;40364;52.270;10.546;2024-03-08T13:48:35;22.58;;;12.75;;
54454;SDS011;40364;52.270;10.546;2024-03-08T13:51:02;21.65;;;13.35;;
54454;SDS011;40364;52.270;10.546;2024-03-08T13:53:29;24.25;;;13.35;;
54454;SDS011;40364;52.270;10.546;2024-03-08T13:55:57;25.27;;;14.85;;
54454;SDS011;40364;52.270;10.546;2024-03-08T13:58:25;25.15;;;14.00;;
54454;SDS011;40364;52.270;10.546;2024-03-08T14:00:51;23.25;;;13.77;;
54454;SDS011;40364;52.270;10.546;2024-03-08T14:03:17;24.48;;;13.98;;
54454;SDS011;40364;52.270;10.546;2024-03-08T14:05:43;24.77;;;13.07;;
54454;SDS011;40364;52.270;10.546;2024-03-08T14:08:11;22.45;;;13.05;;
54454;SDS011;40364;52.270;10.546;2024-03-08T14:10:39;22.80;;;12.95;;
54454;SDS011;40364;52.270;10.546;2024-03-08T14:13:07;21.48;;;13.43;;
54454;SDS011;40364;52.270;10.546;2024-03-08T14:15:35;24.65;;;13.40;;
54454;SDS011;40364;52.270;10.546;2024-03-08T14:18:06;23.85;;;12.90;;